sensor_id;sensor_type;location;lat;lon;timestamp;temperature;humidity
14741;DHT22;7462;53.530;9.414;2022-10-18T00:00:53;14.80;99.90
14741;DHT22;7462;53.530;9.414;2022-10-18T00:03:21;14.80;99.90
14741;DHT22;7462;53.530;9.414;2022-10-18T00:05:50;14.90;99.90
14741;DHT22;7462;53.530;9.414;2022-10-18T00:08:18;14.80;99.90
14741;DHT22;7462;53.530;9.414;2022-10-18T00:10:47;14.80;99.90
14741;DHT22;7462;53.530;9.414;2022-10-18T00:13:15;14.80;99.90
14741;DHT22;7462;53.530;9.414;2022-10-18T00:15:49;14.70;99.90
14741;DHT22;7462;53.530;9.414;2022-10-18T00:18:17;14.80;99.90
14741;DHT22;7462;53.530;9.414;2022-10-18T00:20:55;14.80;99.90
14741;DHT22;7462;53.530;9.414;2022-10-18T00:23:23;14.70;99.90
14741;DHT22;7462;53.530;9.414;2022-10-18T00:25:58;14.80;99.90
14741;DHT22;7462;53.530;9.414;2022-10-18T00:28:26;14.80;99.90
14741;DHT22;7462;53.530;9.414;2022-10-18T00:30:56;14.70;99.90
14741;DHT22;7462;53.530;9.414;2022-10-18T00:33:24;14.70;99.90
14741;DHT22;7462;53.530;9.414;2022-10-18T00:35:52;14.60;99.90
14741;DHT22;7462;53.530;9.414;2022-10-18T00:38:20;14.70;99.90
14741;DHT22;7462;53.530;9.414;2022-10-18T00:40:48;14.70;99.90
14741;DHT22;7462;53.530;9.414;2022-10-18T00:43:17;14.60;99.90
14741;DHT22;7462;53.530;9.414;2022-10-18T00:45:46;14.60;99.90
14741;DHT22;7462;53.530;9.414;2022-10-18T00:48:17;14.60;99.90
14741;DHT22;7462;53.530;9.414;2022-10-18T00:50:46;14.60;99.90
14741;DHT22;7462;53.530;9.414;2022-10-18T00:53:17;14.60;99.90
14741;DHT22;7462;53.530;9.414;2022-10-18T00:55:46;14.50;99.90
14741;DHT22;7462;53.530;9.414;2022-10-18T00:58:16;14.50;99.90
14741;DHT22;7462;53.530;9.414;2022-10-18T01:00:45;14.50;99.90
14741;DHT22;7462;53.530;9.414;2022-10-18T01:03:14;14.50;99.90
14741;DHT22;7462;53.530;9.414;2022-10-18T01:05:45;14.50;99.90
14741;DHT22;7462;53.530;9.414;2022-10-18T01:08:35;14.40;99.90
14741;DHT22;7462;53.530;9.414;2022-10-18T01:11:16;14.40;99.90
14741;DHT22;7462;53.530;9.414;2022-10-18T01:13:59;14.40;99.90
14741;DHT22;7462;53.530;9.414;2022-10-18T01:16:32;14.40;99.90
14741;DHT22;7462;53.530;9.414;2022-10-18T01:19:08;14.40;99.90
14741;DHT22;7462;53.530;9.414;2022-10-18T01:21:44;14.40;99.90
14741;DHT22;7462;53.530;9.414;2022-10-18T01:27:37;14.40;99.90
14741;DHT22;7462;53.530;9.414;2022-10-18T01:33:24;14.50;99.90
14741;DHT22;7462;53.530;9.414;2022-10-18T01:35:57;14.50;99.90
14741;DHT22;7462;53.530;9.414;2022-10-18T01:38:29;14.60;99.90
14741;DHT22;7462;53.530;9.414;2022-10-18T01:40:58;14.40;99.90
14741;DHT22;7462;53.530;9.414;2022-10-18T01:43:28;14.30;99.90
14741;DHT22;7462;53.530;9.414;2022-10-18T01:45:59;14.30;99.90
14741;DHT22;7462;53.530;9.414;2022-10-18T01:48:28;14.20;99.90
14741;DHT22;7462;53.530;9.414;2022-10-18T01:50:57;14.20;99.90
14741;DHT22;7462;53.530;9.414;2022-10-18T01:53:28;14.20;99.90
14741;DHT22;7462;53.530;9.414;2022-10-18T01:59:04;14.10;99.90
14741;DHT22;7462;53.530;9.414;2022-10-18T02:01:40;14.00;99.90
14741;DHT22;7462;53.530;9.414;2022-10-18T02:04:19;14.00;99.90
14741;DHT22;7462;53.530;9.414;2022-10-18T02:06:54;14.00;99.90
14741;DHT22;7462;53.530;9.414;2022-10-18T02:09:30;14.00;99.90
14741;DHT22;7462;53.530;9.414;2022-10-18T02:12:02;14.10;99.90
14741;DHT22;7462;53.530;9.414;2022-10-18T02:14:31;14.20;99.90
14741;DHT22;7462;53.530;9.414;2022-10-18T02:17:02;14.30;99.90
14741;DHT22;7462;53.530;9.414;2022-10-18T02:19:36;14.20;99.90
14741;DHT22;7462;53.530;9.414;2022-10-18T02:22:07;14.20;99.90
14741;DHT22;7462;53.530;9.414;2022-10-18T02:24:38;14.20;99.90
14741;DHT22;7462;53.530;9.414;2022-10-18T02:27:06;14.30;99.90
14741;DHT22;7462;53.530;9.414;2022-10-18T02:29:35;14.30;99.90
14741;DHT22;7462;53.530;9.414;2022-10-18T02:32:05;14.20;99.90
14741;DHT22;7462;53.530;9.414;2022-10-18T02:34:40;14.10;99.90
14741;DHT22;7462;53.530;9.414;2022-10-18T02:37:10;14.00;99.90
14741;DHT22;7462;53.530;9.414;2022-10-18T02:39:42;14.00;99.90
14741;DHT22;7462;53.530;9.414;2022-10-18T02:42:13;14.00;99.90
14741;DHT22;7462;53.530;9.414;2022-10-18T02:44:41;13.80;99.90
14741;DHT22;7462;53.530;9.414;2022-10-18T02:47:11;13.80;99.90
14741;DHT22;7462;53.530;9.414;2022-10-18T02:49:40;13.70;99.90
14741;DHT22;7462;53.530;9.414;2022-10-18T02:52:08;13.80;99.90
14741;DHT22;7462;53.530;9.414;2022-10-18T02:54:36;13.80;99.90
14741;DHT22;7462;53.530;9.414;2022-10-18T02:57:04;13.80;99.90
14741;DHT22;7462;53.530;9.414;2022-10-18T02:59:32;13.80;99.90
14741;DHT22;7462;53.530;9.414;2022-10-18T03:02:00;13.80;99.90
14741;DHT22;7462;53.530;9.414;2022-10-18T03:04:28;13.80;99.90
14741;DHT22;7462;53.530;9.414;2022-10-18T03:06:57;13.90;99.90
14741;DHT22;7462;53.530;9.414;2022-10-18T03:09:26;14.00;99.90
14741;DHT22;7462;53.530;9.414;2022-10-18T03:11:54;14.10;99.90
14741;DHT22;7462;53.530;9.414;2022-10-18T03:14:22;14.10;99.90
14741;DHT22;7462;53.530;9.414;2022-10-18T03:16:50;14.10;99.90
14741;DHT22;7462;53.530;9.414;2022-10-18T03:19:18;14.10;99.90
14741;DHT22;7462;53.530;9.414;2022-10-18T03:21:46;14.00;99.90
14741;DHT22;7462;53.530;9.414;2022-10-18T03:24:15;13.90;99.90
14741;DHT22;7462;53.530;9.414;2022-10-18T03:26:43;14.10;99.90
14741;DHT22;7462;53.530;9.414;2022-10-18T03:29:12;14.20;99.90
14741;DHT22;7462;53.530;9.414;2022-10-18T03:31:40;14.10;99.90
14741;DHT22;7462;53.530;9.414;2022-10-18T03:34:08;14.10;99.90
14741;DHT22;7462;53.530;9.414;2022-10-18T03:36:36;14.10;99.90
14741;DHT22;7462;53.530;9.414;2022-10-18T03:39:06;14.20;99.90
14741;DHT22;7462;53.530;9.414;2022-10-18T03:41:36;14.10;99.90
14741;DHT22;7462;53.530;9.414;2022-10-18T03:44:04;14.10;99.90
14741;DHT22;7462;53.530;9.414;2022-10-18T03:46:32;14.20;99.90
14741;DHT22;7462;53.530;9.414;2022-10-18T03:49:00;14.20;99.90
14741;DHT22;7462;53.530;9.414;2022-10-18T03:51:28;14.20;99.90
14741;DHT22;7462;53.530;9.414;2022-10-18T03:53:56;14.20;99.90
14741;DHT22;7462;53.530;9.414;2022-10-18T03:56:24;14.20;99.90
14741;DHT22;7462;53.530;9.414;2022-10-18T03:58:53;14.10;99.90
14741;DHT22;7462;53.530;9.414;2022-10-18T04:01:22;14.10;99.90
14741;DHT22;7462;53.530;9.414;2022-10-18T04:03:50;14.10;99.90
14741;DHT22;7462;53.530;9.414;2022-10-18T04:06:18;14.10;99.90
14741;DHT22;7462;53.530;9.414;2022-10-18T04:08:46;14.10;99.90
14741;DHT22;7462;53.530;9.414;2022-10-18T04:11:14;14.10;99.90
14741;DHT22;7462;53.530;9.414;2022-10-18T04:13:42;14.20;99.90
14741;DHT22;7462;53.530;9.414;2022-10-18T04:16:12;14.10;99.90
14741;DHT22;7462;53.530;9.414;2022-10-18T04:18:40;14.10;99.90
14741;DHT22;7462;53.530;9.414;2022-10-18T04:21:08;14.10;99.90
14741;DHT22;7462;53.530;9.414;2022-10-18T04:23:36;14.10;99.90
14741;DHT22;7462;53.530;9.414;2022-10-18T04:26:05;14.00;99.90
14741;DHT22;7462;53.530;9.414;2022-10-18T04:28:33;14.00;99.90
14741;DHT22;7462;53.530;9.414;2022-10-18T04:31:05;14.10;99.90
14741;DHT22;7462;53.530;9.414;2022-10-18T04:33:35;14.10;99.90
14741;DHT22;7462;53.530;9.414;2022-10-18T04:36:03;14.10;99.90
14741;DHT22;7462;53.530;9.414;2022-10-18T04:38:31;14.10;99.90
14741;DHT22;7462;53.530;9.414;2022-10-18T04:40:59;14.10;99.90
14741;DHT22;7462;53.530;9.414;2022-10-18T04:43:27;14.10;99.90
14741;DHT22;7462;53.530;9.414;2022-10-18T04:45:55;14.10;99.90
14741;DHT22;7462;53.530;9.414;2022-10-18T04:48:23;14.10;99.90
14741;DHT22;7462;53.530;9.414;2022-10-18T04:50:53;14.10;99.90
14741;DHT22;7462;53.530;9.414;2022-10-18T04:53:21;14.10;99.90
14741;DHT22;7462;53.530;9.414;2022-10-18T04:55:49;14.10;99.90
14741;DHT22;7462;53.530;9.414;2022-10-18T04:58:18;14.00;99.90
14741;DHT22;7462;53.530;9.414;2022-10-18T05:00:46;14.10;99.90
14741;DHT22;7462;53.530;9.414;2022-10-18T05:03:14;14.10;99.90
14741;DHT22;7462;53.530;9.414;2022-10-18T05:05:42;14.00;99.90
14741;DHT22;7462;53.530;9.414;2022-10-18T05:08:32;14.00;99.90
14741;DHT22;7462;53.530;9.414;2022-10-18T05:11:01;14.10;99.90
14741;DHT22;7462;53.530;9.414;2022-10-18T05:13:29;14.10;99.90
14741;DHT22;7462;53.530;9.414;2022-10-18T05:15:57;14.10;99.90
14741;DHT22;7462;53.530;9.414;2022-10-18T05:18:26;14.20;99.90
14741;DHT22;7462;53.530;9.414;2022-10-18T05:20:54;14.20;99.90
14741;DHT22;7462;53.530;9.414;2022-10-18T05:23:22;14.10;99.90
14741;DHT22;7462;53.530;9.414;2022-10-18T05:25:52;14.00;99.90
14741;DHT22;7462;53.530;9.414;2022-10-18T05:28:20;14.10;99.90
14741;DHT22;7462;53.530;9.414;2022-10-18T05:31:09;14.10;99.90
14741;DHT22;7462;53.530;9.414;2022-10-18T05:33:37;14.20;99.90
14741;DHT22;7462;53.530;9.414;2022-10-18T05:36:05;14.10;99.90
14741;DHT22;7462;53.530;9.414;2022-10-18T05:38:36;14.10;99.90
14741;DHT22;7462;53.530;9.414;2022-10-18T05:41:06;14.00;99.90
14741;DHT22;7462;53.530;9.414;2022-10-18T05:43:34;14.00;99.90
14741;DHT22;7462;53.530;9.414;2022-10-18T05:46:02;14.00;99.90
14741;DHT22;7462;53.530;9.414;2022-10-18T05:48:34;14.00;99.90
14741;DHT22;7462;53.530;9.414;2022-10-18T05:51:02;14.00;99.90
14741;DHT22;7462;53.530;9.414;2022-10-18T05:53:31;13.90;99.90
14741;DHT22;7462;53.530;9.414;2022-10-18T05:56:06;14.00;99.90
14741;DHT22;7462;53.530;9.414;2022-10-18T05:58:34;14.10;99.90
14741;DHT22;7462;53.530;9.414;2022-10-18T06:01:03;14.00;99.90
14741;DHT22;7462;53.530;9.414;2022-10-18T06:03:32;14.00;99.90
14741;DHT22;7462;53.530;9.414;2022-10-18T06:06:01;14.00;99.90
14741;DHT22;7462;53.530;9.414;2022-10-18T06:08:29;14.00;99.90
14741;DHT22;7462;53.530;9.414;2022-10-18T06:10:58;14.00;99.90
14741;DHT22;7462;53.530;9.414;2022-10-18T06:13:27;14.00;99.90
14741;DHT22;7462;53.530;9.414;2022-10-18T06:15:59;14.00;99.90
14741;DHT22;7462;53.530;9.414;2022-10-18T06:18:27;13.90;99.90
14741;DHT22;7462;53.530;9.414;2022-10-18T06:20:56;14.00;99.90
14741;DHT22;7462;53.530;9.414;2022-10-18T06:23:25;14.00;99.90
14741;DHT22;7462;53.530;9.414;2022-10-18T06:25:56;14.00;99.90
14741;DHT22;7462;53.530;9.414;2022-10-18T06:28:24;14.00;99.90
14741;DHT22;7462;53.530;9.414;2022-10-18T06:30:54;14.00;99.90
14741;DHT22;7462;53.530;9.414;2022-10-18T06:33:22;13.90;99.90
14741;DHT22;7462;53.530;9.414;2022-10-18T06:35:55;14.00;99.90
14741;DHT22;7462;53.530;9.414;2022-10-18T06:38:23;13.90;99.90
14741;DHT22;7462;53.530;9.414;2022-10-18T06:40:51;14.00;99.90
14741;DHT22;7462;53.530;9.414;2022-10-18T06:43:19;14.00;99.90
14741;DHT22;7462;53.530;9.414;2022-10-18T06:45:47;13.90;99.90
14741;DHT22;7462;53.530;9.414;2022-10-18T06:48:17;13.90;99.90
14741;DHT22;7462;53.530;9.414;2022-10-18T06:50:52;13.90;99.90
14741;DHT22;7462;53.530;9.414;2022-10-18T06:53:20;14.00;99.90
14741;DHT22;7462;53.530;9.414;2022-10-18T06:55:48;14.00;99.90
14741;DHT22;7462;53.530;9.414;2022-10-18T06:58:16;14.10;99.90
14741;DHT22;7462;53.530;9.414;2022-10-18T07:00:44;14.00;99.90
14741;DHT22;7462;53.530;9.414;2022-10-18T07:03:12;14.10;99.90
14741;DHT22;7462;53.530;9.414;2022-10-18T07:05:42;14.00;99.90
14741;DHT22;7462;53.530;9.414;2022-10-18T07:08:10;14.00;99.90
14741;DHT22;7462;53.530;9.414;2022-10-18T07:10:38;14.00;99.90
14741;DHT22;7462;53.530;9.414;2022-10-18T07:13:06;13.90;99.90
14741;DHT22;7462;53.530;9.414;2022-10-18T07:16:02;14.00;99.90
14741;DHT22;7462;53.530;9.414;2022-10-18T07:18:31;13.90;99.90
14741;DHT22;7462;53.530;9.414;2022-10-18T07:21:01;14.00;99.90
14741;DHT22;7462;53.530;9.414;2022-10-18T07:23:31;14.00;99.90
14741;DHT22;7462;53.530;9.414;2022-10-18T07:26:00;14.00;99.90
14741;DHT22;7462;53.530;9.414;2022-10-18T07:28:28;14.00;99.90
14741;DHT22;7462;53.530;9.414;2022-10-18T07:30:57;14.00;99.90
14741;DHT22;7462;53.530;9.414;2022-10-18T07:33:32;14.00;99.90
14741;DHT22;7462;53.530;9.414;2022-10-18T07:36:01;13.90;99.90
14741;DHT22;7462;53.530;9.414;2022-10-18T07:38:30;14.00;99.90
14741;DHT22;7462;53.530;9.414;2022-10-18T07:40:59;14.00;99.90
14741;DHT22;7462;53.530;9.414;2022-10-18T07:43:28;14.00;99.90
14741;DHT22;7462;53.530;9.414;2022-10-18T07:45:57;14.00;99.90
14741;DHT22;7462;53.530;9.414;2022-10-18T07:48:26;14.00;99.90
14741;DHT22;7462;53.530;9.414;2022-10-18T07:50:57;14.00;99.90
14741;DHT22;7462;53.530;9.414;2022-10-18T07:53:27;14.10;99.90
14741;DHT22;7462;53.530;9.414;2022-10-18T07:55:59;14.10;99.90
14741;DHT22;7462;53.530;9.414;2022-10-18T07:58:33;14.20;99.90
14741;DHT22;7462;53.530;9.414;2022-10-18T08:01:01;14.30;99.90
14741;DHT22;7462;53.530;9.414;2022-10-18T08:03:30;14.30;99.90
14741;DHT22;7462;53.530;9.414;2022-10-18T08:05:58;14.30;99.90
14741;DHT22;7462;53.530;9.414;2022-10-18T08:08:28;14.30;99.90
14741;DHT22;7462;53.530;9.414;2022-10-18T08:11:01;14.30;99.90
14741;DHT22;7462;53.530;9.414;2022-10-18T08:13:30;14.30;99.90
14741;DHT22;7462;53.530;9.414;2022-10-18T08:15:58;14.30;99.90
14741;DHT22;7462;53.530;9.414;2022-10-18T08:18:27;14.30;99.90
14741;DHT22;7462;53.530;9.414;2022-10-18T08:20:55;14.30;99.90
14741;DHT22;7462;53.530;9.414;2022-10-18T08:23:23;14.40;99.90
14741;DHT22;7462;53.530;9.414;2022-10-18T08:25:52;14.30;99.90
14741;DHT22;7462;53.530;9.414;2022-10-18T08:28:21;14.20;99.90
14741;DHT22;7462;53.530;9.414;2022-10-18T08:30:49;14.30;99.90
14741;DHT22;7462;53.530;9.414;2022-10-18T08:33:17;14.30;99.90
14741;DHT22;7462;53.530;9.414;2022-10-18T08:35:53;14.20;99.90
14741;DHT22;7462;53.530;9.414;2022-10-18T08:38:22;14.20;99.90
14741;DHT22;7462;53.530;9.414;2022-10-18T08:40:52;14.20;99.90
14741;DHT22;7462;53.530;9.414;2022-10-18T08:43:25;14.20;99.90
14741;DHT22;7462;53.530;9.414;2022-10-18T08:45:57;14.30;99.90
14741;DHT22;7462;53.530;9.414;2022-10-18T08:48:31;14.40;99.90
14741;DHT22;7462;53.530;9.414;2022-10-18T08:51:02;14.60;99.90
14741;DHT22;7462;53.530;9.414;2022-10-18T08:53:35;14.80;99.90
14741;DHT22;7462;53.530;9.414;2022-10-18T08:56:10;15.00;99.90
14741;DHT22;7462;53.530;9.414;2022-10-18T08:58:42;15.30;99.90
14741;DHT22;7462;53.530;9.414;2022-10-18T09:01:24;15.60;99.90
14741;DHT22;7462;53.530;9.414;2022-10-18T09:04:11;15.80;99.90
14741;DHT22;7462;53.530;9.414;2022-10-18T09:06:49;16.10;99.90
14741;DHT22;7462;53.530;9.414;2022-10-18T09:09:29;16.00;99.90
14741;DHT22;7462;53.530;9.414;2022-10-18T09:12:15;16.10;99.90
14741;DHT22;7462;53.530;9.414;2022-10-18T09:15:10;16.20;99.90
14741;DHT22;7462;53.530;9.414;2022-10-18T09:17:52;16.40;99.90
14741;DHT22;7462;53.530;9.414;2022-10-18T09:20:25;16.70;99.90
14741;DHT22;7462;53.530;9.414;2022-10-18T09:22:55;17.00;99.90
14741;DHT22;7462;53.530;9.414;2022-10-18T09:25:32;17.40;99.90
14741;DHT22;7462;53.530;9.414;2022-10-18T09:28:14;17.70;99.90
14741;DHT22;7462;53.530;9.414;2022-10-18T09:30:48;17.50;99.90
14741;DHT22;7462;53.530;9.414;2022-10-18T09:33:36;17.20;99.90
14741;DHT22;7462;53.530;9.414;2022-10-18T09:36:08;17.10;99.90
14741;DHT22;7462;53.530;9.414;2022-10-18T09:38:42;17.20;99.90
14741;DHT22;7462;53.530;9.414;2022-10-18T09:41:16;17.30;99.90
14741;DHT22;7462;53.530;9.414;2022-10-18T09:43:51;17.20;99.90
14741;DHT22;7462;53.530;9.414;2022-10-18T09:46:24;17.20;99.90
14741;DHT22;7462;53.530;9.414;2022-10-18T09:48:56;17.20;99.90
14741;DHT22;7462;53.530;9.414;2022-10-18T09:51:32;17.00;99.90
14741;DHT22;7462;53.530;9.414;2022-10-18T09:54:16;16.90;99.90
14741;DHT22;7462;53.530;9.414;2022-10-18T09:56:47;16.80;99.90
14741;DHT22;7462;53.530;9.414;2022-10-18T09:59:32;16.60;99.90
14741;DHT22;7462;53.530;9.414;2022-10-18T10:02:00;16.50;99.90
14741;DHT22;7462;53.530;9.414;2022-10-18T10:04:29;16.60;99.90
14741;DHT22;7462;53.530;9.414;2022-10-18T10:07:00;16.60;99.90
14741;DHT22;7462;53.530;9.414;2022-10-18T10:09:29;16.70;99.90
14741;DHT22;7462;53.530;9.414;2022-10-18T10:11:58;16.60;99.90
14741;DHT22;7462;53.530;9.414;2022-10-18T10:14:28;16.60;99.90
14741;DHT22;7462;53.530;9.414;2022-10-18T10:16:58;16.60;99.90
14741;DHT22;7462;53.530;9.414;2022-10-18T10:19:30;16.80;99.90
14741;DHT22;7462;53.530;9.414;2022-10-18T10:22:02;17.10;99.90
14741;DHT22;7462;53.530;9.414;2022-10-18T10:24:36;17.50;99.90
14741;DHT22;7462;53.530;9.414;2022-10-18T10:27:16;17.70;99.90
14741;DHT22;7462;53.530;9.414;2022-10-18T10:30:05;17.90;99.90
14741;DHT22;7462;53.530;9.414;2022-10-18T10:32:50;18.00;99.90
14741;DHT22;7462;53.530;9.414;2022-10-18T10:35:29;18.10;99.90
14741;DHT22;7462;53.530;9.414;2022-10-18T10:38:22;18.20;99.90
14741;DHT22;7462;53.530;9.414;2022-10-18T10:40:52;18.20;99.90
14741;DHT22;7462;53.530;9.414;2022-10-18T10:43:22;18.10;99.90
14741;DHT22;7462;53.530;9.414;2022-10-18T10:46:08;18.10;99.90
14741;DHT22;7462;53.530;9.414;2022-10-18T10:48:46;18.20;99.90
14741;DHT22;7462;53.530;9.414;2022-10-18T10:51:17;18.40;99.90
14741;DHT22;7462;53.530;9.414;2022-10-18T10:53:59;18.70;99.90
14741;DHT22;7462;53.530;9.414;2022-10-18T10:56:30;19.00;99.90
14741;DHT22;7462;53.530;9.414;2022-10-18T10:59:06;19.20;99.90
14741;DHT22;7462;53.530;9.414;2022-10-18T11:01:36;19.30;99.90
14741;DHT22;7462;53.530;9.414;2022-10-18T11:04:24;19.30;99.90
14741;DHT22;7462;53.530;9.414;2022-10-18T11:07:03;19.70;99.90
14741;DHT22;7462;53.530;9.414;2022-10-18T11:09:55;20.00;99.90
14741;DHT22;7462;53.530;9.414;2022-10-18T11:12:31;19.80;99.90
14741;DHT22;7462;53.530;9.414;2022-10-18T11:15:23;19.60;99.90
14741;DHT22;7462;53.530;9.414;2022-10-18T11:18:01;19.40;99.90
14741;DHT22;7462;53.530;9.414;2022-10-18T11:20:34;19.00;99.90
14741;DHT22;7462;53.530;9.414;2022-10-18T11:23:06;18.60;99.90
14741;DHT22;7462;53.530;9.414;2022-10-18T11:25:58;18.50;99.90
14741;DHT22;7462;53.530;9.414;2022-10-18T11:28:36;18.50;99.90
14741;DHT22;7462;53.530;9.414;2022-10-18T11:31:15;18.90;99.90
14741;DHT22;7462;53.530;9.414;2022-10-18T11:36:43;19.00;99.90
14741;DHT22;7462;53.530;9.414;2022-10-18T11:39:37;18.70;99.90
14741;DHT22;7462;53.530;9.414;2022-10-18T11:42:15;18.50;99.90
14741;DHT22;7462;53.530;9.414;2022-10-18T11:44:52;18.00;99.90
14741;DHT22;7462;53.530;9.414;2022-10-18T11:47:30;17.50;99.90
14741;DHT22;7462;53.530;9.414;2022-10-18T11:50:16;17.30;99.90
14741;DHT22;7462;53.530;9.414;2022-10-18T11:52:53;17.00;99.90
14741;DHT22;7462;53.530;9.414;2022-10-18T11:55:34;16.90;99.90
14741;DHT22;7462;53.530;9.414;2022-10-18T11:58:11;16.80;99.90
14741;DHT22;7462;53.530;9.414;2022-10-18T12:00:49;16.80;99.90
14741;DHT22;7462;53.530;9.414;2022-10-18T12:03:25;16.90;99.90
14741;DHT22;7462;53.530;9.414;2022-10-18T12:06:03;17.20;99.90
14741;DHT22;7462;53.530;9.414;2022-10-18T12:08:36;17.20;99.90
14741;DHT22;7462;53.530;9.414;2022-10-18T12:11:09;17.00;99.90
14741;DHT22;7462;53.530;9.414;2022-10-18T12:13:42;17.00;99.90
14741;DHT22;7462;53.530;9.414;2022-10-18T12:16:11;17.10;99.90
14741;DHT22;7462;53.530;9.414;2022-10-18T12:18:50;17.10;99.90
14741;DHT22;7462;53.530;9.414;2022-10-18T12:21:27;17.20;99.90
14741;DHT22;7462;53.530;9.414;2022-10-18T12:23:58;17.30;99.90
14741;DHT22;7462;53.530;9.414;2022-10-18T12:26:28;17.70;99.90
14741;DHT22;7462;53.530;9.414;2022-10-18T12:29:05;17.90;99.90
14741;DHT22;7462;53.530;9.414;2022-10-18T12:31:39;18.00;99.90
14741;DHT22;7462;53.530;9.414;2022-10-18T12:34:32;18.20;99.90
14741;DHT22;7462;53.530;9.414;2022-10-18T12:37:50;18.10;99.90
14741;DHT22;7462;53.530;9.414;2022-10-18T12:40:35;18.10;99.90
14741;DHT22;7462;53.530;9.414;2022-10-18T12:43:08;18.20;99.90
14741;DHT22;7462;53.530;9.414;2022-10-18T12:45:47;17.90;99.90
14741;DHT22;7462;53.530;9.414;2022-10-18T12:48:29;17.90;99.90
14741;DHT22;7462;53.530;9.414;2022-10-18T12:51:02;18.10;99.90
14741;DHT22;7462;53.530;9.414;2022-10-18T12:53:33;18.20;99.90
14741;DHT22;7462;53.530;9.414;2022-10-18T12:56:36;18.20;99.90
14741;DHT22;7462;53.530;9.414;2022-10-18T13:02:29;18.10;99.90
14741;DHT22;7462;53.530;9.414;2022-10-18T13:04:58;17.80;99.90
14741;DHT22;7462;53.530;9.414;2022-10-18T13:07:39;17.70;99.90
14741;DHT22;7462;53.530;9.414;2022-10-18T13:10:35;17.50;99.90
14741;DHT22;7462;53.530;9.414;2022-10-18T13:16:24;17.20;99.90
14741;DHT22;7462;53.530;9.414;2022-10-18T13:18:56;17.00;99.90
14741;DHT22;7462;53.530;9.414;2022-10-18T13:21:33;17.00;99.90
14741;DHT22;7462;53.530;9.414;2022-10-18T13:24:19;17.10;99.90
14741;DHT22;7462;53.530;9.414;2022-10-18T13:27:12;17.20;99.90
14741;DHT22;7462;53.530;9.414;2022-10-18T13:30:21;17.30;99.90
14741;DHT22;7462;53.530;9.414;2022-10-18T13:32:56;17.20;99.90
14741;DHT22;7462;53.530;9.414;2022-10-18T13:35:58;16.90;99.90
14741;DHT22;7462;53.530;9.414;2022-10-18T13:38:45;16.60;99.90
14741;DHT22;7462;53.530;9.414;2022-10-18T13:41:16;16.50;99.90
14741;DHT22;7462;53.530;9.414;2022-10-18T13:43:59;16.40;99.90
14741;DHT22;7462;53.530;9.414;2022-10-18T13:50:23;16.40;99.90
14741;DHT22;7462;53.530;9.414;2022-10-18T13:53:08;16.40;99.90
14741;DHT22;7462;53.530;9.414;2022-10-18T13:55:51;16.30;99.90
14741;DHT22;7462;53.530;9.414;2022-10-18T13:58:28;16.20;99.90
14741;DHT22;7462;53.530;9.414;2022-10-18T14:01:11;16.10;99.90
14741;DHT22;7462;53.530;9.414;2022-10-18T14:04:06;16.10;99.90
14741;DHT22;7462;53.530;9.414;2022-10-18T14:06:41;16.00;99.90
14741;DHT22;7462;53.530;9.414;2022-10-18T14:09:15;16.00;99.90
14741;DHT22;7462;53.530;9.414;2022-10-18T14:12:06;16.00;99.90
14741;DHT22;7462;53.530;9.414;2022-10-18T14:14:40;16.00;99.90
14741;DHT22;7462;53.530;9.414;2022-10-18T14:17:21;16.00;99.90
14741;DHT22;7462;53.530;9.414;2022-10-18T14:19:55;16.20;99.90
14741;DHT22;7462;53.530;9.414;2022-10-18T14:22:26;16.30;99.90
14741;DHT22;7462;53.530;9.414;2022-10-18T14:24:58;16.40;99.90
14741;DHT22;7462;53.530;9.414;2022-10-18T14:27:27;16.50;99.90
14741;DHT22;7462;53.530;9.414;2022-10-18T14:30:13;16.70;99.90
14741;DHT22;7462;53.530;9.414;2022-10-18T14:32:45;16.60;99.90
14741;DHT22;7462;53.530;9.414;2022-10-18T14:35:17;16.60;99.90
14741;DHT22;7462;53.530;9.414;2022-10-18T14:37:59;16.50;99.90
14741;DHT22;7462;53.530;9.414;2022-10-18T14:40:31;16.50;99.90
14741;DHT22;7462;53.530;9.414;2022-10-18T14:43:05;16.40;99.90
14741;DHT22;7462;53.530;9.414;2022-10-18T14:45:33;16.30;99.90
14741;DHT22;7462;53.530;9.414;2022-10-18T14:48:15;16.30;99.90
14741;DHT22;7462;53.530;9.414;2022-10-18T14:50:47;16.30;99.90
14741;DHT22;7462;53.530;9.414;2022-10-18T14:53:18;16.20;99.90
14741;DHT22;7462;53.530;9.414;2022-10-18T14:55:54;16.10;99.90
14741;DHT22;7462;53.530;9.414;2022-10-18T14:58:23;16.00;99.90
14741;DHT22;7462;53.530;9.414;2022-10-18T15:00:51;16.00;99.90
14741;DHT22;7462;53.530;9.414;2022-10-18T15:03:21;16.00;99.90
14741;DHT22;7462;53.530;9.414;2022-10-18T15:05:57;16.00;99.90
14741;DHT22;7462;53.530;9.414;2022-10-18T15:08:29;15.90;99.90
14741;DHT22;7462;53.530;9.414;2022-10-18T15:10:58;15.90;99.90
14741;DHT22;7462;53.530;9.414;2022-10-18T15:13:26;15.80;99.90
14741;DHT22;7462;53.530;9.414;2022-10-18T15:15:55;15.80;99.90
14741;DHT22;7462;53.530;9.414;2022-10-18T15:18:25;15.80;99.90
14741;DHT22;7462;53.530;9.414;2022-10-18T15:21:08;15.70;99.90
14741;DHT22;7462;53.530;9.414;2022-10-18T15:23:36;15.70;99.90
14741;DHT22;7462;53.530;9.414;2022-10-18T15:26:06;15.70;99.90
14741;DHT22;7462;53.530;9.414;2022-10-18T15:28:40;15.80;99.90
14741;DHT22;7462;53.530;9.414;2022-10-18T15:31:22;15.80;99.90
14741;DHT22;7462;53.530;9.414;2022-10-18T15:33:53;15.80;99.90
14741;DHT22;7462;53.530;9.414;2022-10-18T15:36:26;15.70;99.90
14741;DHT22;7462;53.530;9.414;2022-10-18T15:39:04;15.60;99.90
14741;DHT22;7462;53.530;9.414;2022-10-18T15:41:37;15.50;99.90
14741;DHT22;7462;53.530;9.414;2022-10-18T15:44:07;15.50;99.90
14741;DHT22;7462;53.530;9.414;2022-10-18T15:46:39;15.40;99.90
14741;DHT22;7462;53.530;9.414;2022-10-18T15:49:50;15.40;99.90
14741;DHT22;7462;53.530;9.414;2022-10-18T15:52:39;15.30;99.90
14741;DHT22;7462;53.530;9.414;2022-10-18T15:55:45;15.30;99.90
14741;DHT22;7462;53.530;9.414;2022-10-18T15:58:19;15.30;99.90
14741;DHT22;7462;53.530;9.414;2022-10-18T16:00:49;15.30;99.90
14741;DHT22;7462;53.530;9.414;2022-10-18T16:03:18;15.20;99.90
14741;DHT22;7462;53.530;9.414;2022-10-18T16:05:50;15.20;99.90
14741;DHT22;7462;53.530;9.414;2022-10-18T16:08:22;15.10;99.90
14741;DHT22;7462;53.530;9.414;2022-10-18T16:10:51;15.10;99.90
14741;DHT22;7462;53.530;9.414;2022-10-18T16:13:19;15.00;99.90
14741;DHT22;7462;53.530;9.414;2022-10-18T16:15:47;15.00;99.90
14741;DHT22;7462;53.530;9.414;2022-10-18T16:18:17;14.90;99.90
14741;DHT22;7462;53.530;9.414;2022-10-18T16:20:45;14.80;99.90
14741;DHT22;7462;53.530;9.414;2022-10-18T16:23:20;14.70;99.90
14741;DHT22;7462;53.530;9.414;2022-10-18T16:25:49;14.70;99.90
14741;DHT22;7462;53.530;9.414;2022-10-18T16:28:19;14.70;99.90
14741;DHT22;7462;53.530;9.414;2022-10-18T16:30:53;14.80;99.90
14741;DHT22;7462;53.530;9.414;2022-10-18T16:33:22;14.80;99.90
14741;DHT22;7462;53.530;9.414;2022-10-18T16:35:50;14.80;99.90
14741;DHT22;7462;53.530;9.414;2022-10-18T16:38:27;14.70;99.90
14741;DHT22;7462;53.530;9.414;2022-10-18T16:41:01;14.70;99.90
14741;DHT22;7462;53.530;9.414;2022-10-18T16:43:30;14.70;99.90
14741;DHT22;7462;53.530;9.414;2022-10-18T16:45:58;14.70;99.90